Time;durP1;ratioP1;P1;durP2;ratioP2;P2;SDS_P1;SDS_P2;PMS_P1;PMS_P2;Temp;Humidity;BMP_temperature;BMP_pressure;BME280_temperature;BME280_humidity;BME280_pressure;Samples;Min_cycle;Max_cycle;Signal;HPM_P1;HPM_P2
2023/01/23 00:20:44;;;;;;;;;;;;;;;;;;;;;
2023/01/23 00:34:31;;;;;;;70.40;33.65;;;2.10;99.90;;;;;;2586454;54;20044;31
2023/01/23 00:41:34;;;;;;;75.35;31.35;;;2.00;99.90;;;;;;2585965;54;21107;31
2023/01/23 00:44:20;;;;;;;53.88;26.35;;;2.00;99.90;;;;;;2586365;54;20109;31
2023/01/23 00:49:59;;;;;;;82.53;33.83;;;2.00;99.90;;;;;;2585879;54;20954;31
2023/01/23 00:55:35;;;;;;;65.35;28.30;;;2.00;99.90;;;;;;2586046;54;20133;31
2023/01/23 01:01:22;;;;;;;67.90;27.52;;;2.00;99.90;;;;;;2604593;46;20027;31
2023/01/23 01:07:25;;;;;;;68.25;29.40;;;2.00;99.90;;;;;;2586132;54;20045;31
2023/01/23 01:10:04;;;;;;;61.60;27.53;;;2.00;99.90;;;;;;2586474;54;19934;31
2023/01/23 01:12:49;;;;;;;66.70;29.90;;;2.00;99.90;;;;;;2587788;46;20867;31
2023/01/23 01:15:35;;;;;;;65.07;25.60;;;2.00;99.90;;;;;;2585174;54;20061;31
2023/01/23 01:22:07;;;;;;;74.72;29.58;;;2.00;99.90;;;;;;2604030;46;20799;31
2023/01/23 01:25:10;;;;;;;64.07;27.53;;;2.00;99.90;;;;;;2683962;39;22357;31
2023/01/23 01:28:15;;;;;;;67.88;29.85;;;2.00;99.90;;;;;;2604076;46;20026;31
2023/01/23 01:31:11;;;;;;;74.88;29.92;;;2.00;99.90;;;;;;2586357;54;20797;31
2023/01/23 01:33:51;;;;;;;76.60;32.70;;;2.00;99.90;;;;;;2586129;54;20033;31
2023/01/23 01:37:19;;;;;;;62.63;27.80;;;2.00;99.90;;;;;;2586267;54;20928;31
2023/01/23 01:43:17;;;;;;;75.13;31.95;;;2.00;99.90;;;;;;2586167;54;20026;31
2023/01/23 01:46:11;;;;;;;67.72;29.10;;;2.00;99.90;;;;;;2604314;46;21501;31
2023/01/23 01:49:06;;;;;;;67.30;27.95;;;2.00;99.90;;;;;;2585977;54;20758;31
2023/01/23 01:54:32;;;;;;;65.90;29.50;;;2.00;99.90;;;;;;2585487;54;20106;31
2023/01/23 01:57:19;;;;;;;61.35;29.02;;;2.00;99.90;;;;;;2683919;39;20501;31
2023/01/23 02:00:06;;;;;;;61.33;25.97;;;2.00;99.90;;;;;;2586046;54;20851;31
2023/01/23 02:03:05;;;;;;;;;;;;;;;;;;;;;
2023/01/23 02:05:53;;;;;;;60.60;27.15;;;2.00;99.90;;;;;;2586187;54;20888;31
2023/01/23 02:08:39;;;;;;;60.60;25.75;;;2.00;99.90;;;;;;2585776;54;20044;31
2023/01/23 02:14:19;;;;;;;53.03;24.17;;;2.10;99.90;;;;;;2604742;46;20026;31
2023/01/23 02:17:16;;;;;;;55.05;24.75;;;2.10;99.90;;;;;;2586160;54;20057;31
2023/01/23 02:20:28;;;;;;;58.67;27.42;;;2.10;99.90;;;;;;2585346;54;20900;31
2023/01/23 02:26:28;;;;;;;54.10;24.55;;;2.10;99.90;;;;;;2585101;54;20105;31
2023/01/23 02:42:18;;;;;;;67.85;28.40;;;2.10;99.90;;;;;;2585097;54;20073;31
2023/01/23 02:55:31;;;;;;;58.65;27.05;;;2.10;99.90;;;;;;2682811;39;21397;31
2023/01/23 03:01:05;;;;;;;63.50;27.70;;;2.20;99.90;;;;;;2585745;54;20148;31
2023/01/23 03:03:45;;;;;;;;;;;2.10;99.90;;;;;;2585942;54;20026;31
2023/01/23 03:06:53;;;;;;;66.15;28.10;;;2.10;99.90;;;;;;2586069;54;20801;31
2023/01/23 03:09:32;;;;;;;70.10;28.33;;;2.10;99.90;;;;;;2585788;54;20914;31
2023/01/23 03:18:23;;;;;;;;;;;;;;;;;;;;;
2023/01/23 03:31:58;;;;;;;65.53;28.05;;;2.00;99.90;;;;;;2586013;54;20924;31
2023/01/23 03:34:44;;;;;;;76.30;31.90;;;2.00;99.90;;;;;;2603831;47;20926;31
2023/01/23 03:37:41;;;;;;;59.30;26.50;;;2.00;99.90;;;;;;2585434;54;20085;31
2023/01/23 03:46:37;;;;;;;52.03;22.73;;;2.00;99.90;;;;;;2585759;54;19957;31
2023/01/23 03:49:20;;;;;;;55.97;24.73;;;2.10;99.90;;;;;;2586520;54;20636;31
2023/01/23 03:52:08;;;;;;;66.93;28.03;;;2.10;99.90;;;;;;2586716;54;20029;31
2023/01/23 03:54:56;;;;;;;56.22;25.50;;;2.10;99.90;;;;;;2586228;54;20340;31
2023/01/23 03:57:48;;;;;;;58.17;27.52;;;2.10;99.90;;;;;;2586667;54;20817;31
2023/01/23 04:00:51;;;;;;;70.30;29.20;;;2.20;99.90;;;;;;2684353;39;21402;31
2023/01/23 04:03:51;;;;;;;69.93;29.15;;;2.10;99.90;;;;;;2586307;54;20773;31
2023/01/23 04:06:46;;;;;;;71.00;29.40;;;2.10;99.90;;;;;;2586617;54;20054;31
2023/01/23 04:09:37;;;;;;;54.33;24.45;;;2.10;99.90;;;;;;2586214;54;20022;31
2023/01/23 04:12:22;;;;;;;64.30;25.37;;;2.10;99.90;;;;;;2604393;46;20026;31
2023/01/23 04:15:09;;;;;;;120.53;47.55;;;2.10;99.90;;;;;;2586478;54;20387;31
2023/01/23 04:57:57;;;;;;;136.55;55.90;;;2.10;99.90;;;;;;2627957;53;20338;31
2023/01/23 05:00:33;;;;;;;91.37;36.80;;;2.10;99.90;;;;;;2589781;54;20026;31
2023/01/23 05:03:15;;;;;;;84.88;33.03;;;2.10;99.90;;;;;;2590019;54;20030;31
2023/01/23 05:06:00;;;;;;;93.60;35.73;;;2.10;99.90;;;;;;2589347;54;20026;31
2023/01/23 05:08:38;;;;;;;92.50;33.25;;;2.00;99.90;;;;;;2590077;54;20378;31
2023/01/23 05:14:40;;;;;;;85.68;31.85;;;2.10;99.90;;;;;;2590008;54;20890;31
2023/01/23 05:17:21;;;;;;;97.73;34.23;;;2.10;99.90;;;;;;2608562;46;20908;31
2023/01/23 05:20:09;;;;;;;83.93;30.63;;;2.10;99.90;;;;;;2589764;54;20160;31
2023/01/23 05:23:14;;;;;;;80.80;30.17;;;2.10;99.90;;;;;;2593995;46;20026;31
2023/01/23 05:26:07;;;;;;;105.70;37.10;;;2.10;99.90;;;;;;2589741;54;20029;31
2023/01/23 05:29:28;;;;;;;101.25;36.55;;;2.10;99.90;;;;;;2589833;54;20030;31
2023/01/23 05:32:18;;;;;;;106.15;36.55;;;2.10;99.90;;;;;;2608323;46;20873;31
2023/01/23 05:40:48;;;;;;;90.70;34.65;;;2.10;99.90;;;;;;2590040;54;20085;31
2023/01/23 05:43:53;;;;;;;88.53;35.77;;;2.10;99.90;;;;;;2590143;54;20101;31
2023/01/23 05:52:44;;;;;;;86.13;31.70;;;2.10;99.90;;;;;;2589120;54;20055;31
2023/01/23 05:59:21;;;;;;;68.38;26.48;;;2.10;99.90;;;;;;2586573;54;20078;31
2023/01/23 06:02:29;;;;;;;63.20;26.07;;;2.10;99.90;;;;;;2586064;54;20085;31
2023/01/23 06:18:17;;;;;;;74.00;32.15;;;2.10;99.90;;;;;;2584724;54;20883;31
2023/01/23 06:46:16;;;;;;;101.03;45.78;;;2.00;99.90;;;;;;2688468;39;20392;31
2023/01/23 06:52:34;;;;;;;77.67;31.53;;;2.00;99.90;;;;;;2582607;54;21223;31
2023/01/23 06:59:18;;;;;;;72.63;29.37;;;2.00;99.90;;;;;;2585511;54;20982;31
2023/01/23 08:08:32;;;;;;;72.80;29.77;;;2.10;99.90;;;;;;2583226;54;20031;31
2023/01/23 08:11:09;;;;;;;75.90;30.35;;;2.10;99.90;;;;;;2598253;46;20030;31
2023/01/23 08:13:46;;;;;;;81.65;31.70;;;2.10;99.90;;;;;;2586043;54;20945;31
2023/01/23 08:16:42;;;;;;;;;;;2.10;99.90;;;;;;2586180;54;20750;31
2023/01/23 08:22:02;;;;;;;82.25;31.55;;;2.10;99.90;;;;;;2646641;53;20119;31
2023/01/23 08:24:47;;;;;;;89.97;34.77;;;2.10;99.90;;;;;;2607316;54;20903;31
2023/01/23 08:31:02;;;;;;;81.40;33.35;;;2.10;99.90;;;;;;2607517;54;20056;31
2023/01/23 08:33:45;;;;;;;78.75;32.80;;;2.10;99.90;;;;;;2607363;54;19957;31
2023/01/23 08:36:23;;;;;;;84.25;31.05;;;2.10;99.90;;;;;;2625771;46;20898;31
2023/01/23 08:42:21;;;;;;;70.05;30.38;;;2.10;99.90;;;;;;2614866;46;20019;31
2023/01/23 08:45:00;;;;;;;76.70;30.25;;;2.20;99.90;;;;;;2607238;54;20952;31
2023/01/23 08:47:43;;;;;;;76.17;30.73;;;2.20;99.90;;;;;;2607073;54;20569;31
2023/01/23 08:53:35;;;;;;;80.20;31.33;;;2.20;99.90;;;;;;2607482;54;20853;31
2023/01/23 08:56:13;;;;;;;65.20;27.45;;;2.20;99.90;;;;;;2607317;54;20026;31
2023/01/23 08:58:53;;;;;;;72.18;30.38;;;2.20;99.90;;;;;;2607357;54;20770;31
2023/01/23 09:01:46;;;;;;;68.32;28.95;;;2.20;99.90;;;;;;2724742;38;20555;31
2023/01/23 09:04:23;;;;;;;63.17;27.63;;;2.20;99.90;;;;;;2625698;46;20825;31
2023/01/23 09:06:59;;;;;;;71.20;30.15;;;2.20;99.90;;;;;;2607426;54;20093;31
2023/01/23 09:09:39;;;;;;;67.28;28.73;;;2.20;99.90;;;;;;2607267;54;20842;31
2023/01/23 09:12:14;;;;;;;65.55;26.20;;;2.30;99.90;;;;;;2607509;54;20098;31
2023/01/23 09:14:56;;;;;;;68.40;28.42;;;2.20;99.90;;;;;;2706071;38;20574;31
2023/01/23 09:17:32;;;;;;;74.45;30.45;;;2.30;99.90;;;;;;2625550;46;20527;31
2023/01/23 09:20:34;;;;;;;62.97;27.40;;;2.30;99.90;;;;;;2705939;38;20570;31
2023/01/23 09:23:13;;;;;;;72.80;31.80;;;2.20;99.90;;;;;;2706126;38;20722;31
2023/01/23 09:31:35;;;;;;;81.22;32.38;;;2.30;99.90;;;;;;2606260;54;20032;31
2023/01/23 09:34:12;;;;;;;66.03;30.17;;;2.20;99.90;;;;;;2603593;54;20056;31
2023/01/23 09:36:59;;;;;;;77.30;34.20;;;2.30;99.90;;;;;;2603794;54;20147;31
2023/01/23 09:39:39;;;;;;;84.97;35.67;;;2.30;99.90;;;;;;2603528;54;20039;31
2023/01/23 09:42:21;;;;;;;87.47;37.53;;;2.30;99.90;;;;;;2603695;54;20847;31
2023/01/23 09:44:58;;;;;;;72.13;31.27;;;2.30;99.90;;;;;;2603708;54;20855;31
2023/01/23 09:47:47;;;;;;;74.55;32.28;;;2.30;99.90;;;;;;2622241;46;20120;31
2023/01/23 09:52:57;;;;;;;70.47;31.40;;;2.30;99.90;;;;;;2603593;54;20030;31
2023/01/23 09:55:40;;;;;;;66.80;29.23;;;2.30;99.90;;;;;;2702043;39;20470;31
2023/01/23 09:58:20;;;;;;;72.78;31.95;;;2.40;99.90;;;;;;2792045;31;21547;31
2023/01/23 10:01:01;;;;;;;72.50;30.40;;;2.40;99.90;;;;;;2603510;54;20131;31
2023/01/23 10:03:46;;;;;;;69.00;29.25;;;2.40;99.90;;;;;;2603538;54;20923;31
2023/01/23 10:06:23;;;;;;;;;;;2.40;99.90;;;;;;2603882;54;20858;31
2023/01/23 10:09:23;;;;;;;77.95;32.65;;;2.40;99.90;;;;;;2619327;46;20575;31
2023/01/23 10:12:18;;;;;;;71.73;29.07;;;2.40;99.90;;;;;;2603545;54;20954;31
2023/01/23 10:15:30;;;;;;;68.30;31.65;;;2.40;99.90;;;;;;2603416;54;20113;31
2023/01/23 10:18:18;;;;;;;76.55;30.23;;;2.50;99.90;;;;;;2603682;54;20056;31
2023/01/23 10:21:20;;;;;;;86.05;33.03;;;2.50;99.90;;;;;;2621876;46;20134;31
2023/01/23 10:24:04;;;;;;;72.33;29.37;;;2.50;99.90;;;;;;2603768;54;20026;31
2023/01/23 10:26:48;;;;;;;80.43;32.08;;;2.50;99.90;;;;;;2702270;39;20743;31
2023/01/23 10:29:29;;;;;;;75.38;30.42;;;2.50;99.90;;;;;;2720680;39;20472;31
2023/01/23 10:32:09;;;;;;;79.40;30.92;;;2.50;99.90;;;;;;2602915;54;20574;31
2023/01/23 10:35:12;;;;;;;77.95;32.25;;;2.50;99.90;;;;;;2602532;54;20867;31
2023/01/23 10:38:17;;;;;;;78.07;31.83;;;2.60;99.90;;;;;;2603464;54;20947;31
2023/01/23 10:44:00;;;;;;;96.60;36.45;;;2.60;99.90;;;;;;2603070;54;20842;31
2023/01/23 10:46:37;;;;;;;87.50;37.20;;;2.60;99.90;;;;;;2603411;54;20834;31
2023/01/23 10:49:15;;;;;;;114.00;43.25;;;2.60;99.90;;;;;;2603310;54;20026;31
2023/01/23 10:52:02;;;;;;;91.03;36.38;;;2.60;99.90;;;;;;2603279;54;20749;31
2023/01/23 10:55:10;;;;;;;108.57;43.10;;;2.60;99.90;;;;;;2603402;54;20592;31
2023/01/23 10:58:09;;;;;;;93.60;34.85;;;2.50;99.90;;;;;;2622028;46;20046;31
2023/01/23 11:01:23;;;;;;;83.28;35.35;;;2.50;99.90;;;;;;2603181;54;20140;31
2023/01/23 11:04:12;;;;;;;84.33;34.90;;;2.60;99.90;;;;;;2621846;46;20033;31
2023/01/23 11:07:08;;;;;;;82.67;34.87;;;2.60;99.90;;;;;;2773550;31;20528;31
2023/01/23 11:09:44;;;;;;;77.00;32.92;;;2.60;99.90;;;;;;2603511;54;20033;31
2023/01/23 11:18:30;;;;;;;88.13;38.00;;;2.70;99.90;;;;;;2602831;54;20293;31
2023/01/23 11:21:24;;;;;;;82.85;34.28;;;2.70;99.90;;;;;;2603228;54;20034;31
2023/01/23 11:42:41;;;;;;;85.37;34.30;;;2.60;99.90;;;;;;2603090;54;20899;31
2023/01/23 11:45:31;;;;;;;87.68;35.95;;;2.70;99.90;;;;;;2608468;46;20388;31
2023/01/23 11:48:29;;;;;;;86.55;34.22;;;2.70;99.90;;;;;;2621834;46;20093;31
2023/01/23 11:51:41;;;;;;;;;;;;;;;;;;;;;
2023/01/23 11:54:40;;;;;;;102.93;39.05;;;2.60;99.90;;;;;;2621398;46;20258;31
2023/01/23 11:57:21;;;;;;;109.55;41.13;;;2.60;99.90;;;;;;2603328;54;20816;31
2023/01/23 12:03:27;;;;;;;103.13;42.83;;;2.50;99.90;;;;;;2620762;46;21025;31
2023/01/23 12:09:23;;;;;;;100.78;38.78;;;2.50;99.90;;;;;;2602954;54;20171;31
2023/01/23 12:12:38;;;;;;;102.93;37.60;;;2.60;99.90;;;;;;2603117;54;20031;31
2023/01/23 12:15:31;;;;;;;96.10;38.20;;;2.50;99.90;;;;;;2603282;54;20030;31
2023/01/23 12:24:25;;;;;;;90.50;32.92;;;2.60;99.90;;;;;;2602889;54;21083;31
2023/01/23 12:30:18;;;;;;;90.45;33.95;;;2.60;99.90;;;;;;2603149;54;20030;31
2023/01/23 12:33:05;;;;;;;82.67;32.87;;;2.60;99.90;;;;;;2602883;54;20892;31
2023/01/23 12:35:49;;;;;;;79.75;32.38;;;2.60;99.90;;;;;;2603092;54;20172;31
2023/01/23 12:38:31;;;;;;;84.40;30.40;;;2.60;99.90;;;;;;2603293;54;20093;31
2023/01/23 12:41:36;;;;;;;87.95;33.28;;;2.70;99.90;;;;;;2602341;54;20023;31
2023/01/23 12:44:24;;;;;;;81.93;31.88;;;2.60;99.90;;;;;;2602965;54;21436;31
2023/01/23 12:47:05;;;;;;;86.17;34.30;;;2.50;99.90;;;;;;2603178;54;19934;31
2023/01/23 12:50:02;;;;;;;108.78;45.38;;;2.60;99.90;;;;;;2621196;47;21100;31
2023/01/23 12:55:45;;;;;;;297.27;111.28;;;2.60;99.90;;;;;;2602740;54;20064;31
2023/01/23 12:58:34;;;;;;;251.20;95.83;;;2.60;99.90;;;;;;2602912;54;20048;31
2023/01/23 13:01:30;;;;;;;150.50;62.25;;;2.60;99.90;;;;;;2621634;47;20764;31
2023/01/23 13:04:21;;;;;;;115.40;44.50;;;2.60;99.90;;;;;;2602645;54;20597;31
2023/01/23 13:06:57;;;;;;;107.55;42.90;;;2.60;99.90;;;;;;2603051;54;20875;31
2023/01/23 13:10:01;;;;;;;103.63;41.58;;;2.50;99.90;;;;;;2603953;54;20743;31
2023/01/23 13:22:29;;;;;;;116.63;48.70;;;2.50;99.90;;;;;;2603717;54;20072;31
2023/01/23 13:25:21;;;;;;;134.45;68.47;;;2.50;99.90;;;;;;2603315;54;20022;31
2023/01/23 13:28:03;;;;;;;105.20;43.75;;;2.50;99.90;;;;;;2622057;46;20034;31
2023/01/23 13:30:47;;;;;;;94.18;39.15;;;2.50;99.90;;;;;;2602976;54;20883;31
2023/01/23 13:34:01;;;;;;;103.60;40.65;;;2.50;99.90;;;;;;2603613;54;20860;31
2023/01/23 13:36:52;;;;;;;96.17;37.87;;;2.50;99.90;;;;;;2603744;54;20857;31
2023/01/23 13:39:43;;;;;;;100.40;38.47;;;2.50;99.90;;;;;;2603486;54;20258;31
2023/01/23 13:42:50;;;;;;;94.90;38.13;;;2.50;99.90;;;;;;2603754;54;19942;31
2023/01/23 13:45:46;;;;;;;110.40;47.37;;;2.50;99.90;;;;;;2603594;54;20029;31
2023/01/23 13:57:59;;;;;;;94.40;37.33;;;2.50;99.90;;;;;;2603500;54;20558;31
2023/01/23 14:07:08;;;;;;;106.45;40.08;;;2.50;99.90;;;;;;2603541;54;20026;31
2023/01/23 14:10:20;;;;;;;108.65;43.80;;;2.40;99.90;;;;;;2609105;46;20073;31
2023/01/23 14:13:18;;;;;;;;;;;;;;;;;;;;;
2023/01/23 14:22:36;;;;;;;94.10;37.63;;;2.40;99.90;;;;;;2621992;46;20251;31
2023/01/23 14:56:23;;;;;;;93.15;36.22;;;2.40;99.90;;;;;;2602782;54;19954;31
2023/01/23 15:08:20;;;;;;;87.43;36.28;;;2.40;99.90;;;;;;2601449;54;20906;31
2023/01/23 15:14:16;;;;;;;110.65;44.72;;;2.40;99.90;;;;;;2602973;54;20793;31
2023/01/23 15:16:58;;;;;;;104.97;38.73;;;2.40;99.90;;;;;;2603085;54;20026;31
2023/01/23 15:19:39;;;;;;;97.95;39.92;;;2.30;99.90;;;;;;2603549;54;20859;31
2023/01/23 16:02:41;;;;;;;100.85;39.63;;;2.20;99.90;;;;;;2600901;54;20014;31
2023/01/23 17:36:56;;;;;;;116.43;47.23;;;2.20;99.90;;;;;;2601297;54;22346;31
2023/01/23 17:42:53;;;;;;;115.18;42.75;;;2.20;99.90;;;;;;2617694;46;20085;31
2023/01/23 17:45:55;;;;;;;98.70;39.65;;;2.20;99.90;;;;;;2621335;46;20128;31
2023/01/23 18:08:19;;;;;;;109.40;44.60;;;2.10;99.90;;;;;;2603310;54;20030;31
2023/01/23 18:17:26;;;;;;;143.43;56.58;;;2.20;99.90;;;;;;2602940;54;20058;31
2023/01/23 18:23:21;;;;;;;125.90;48.63;;;2.20;99.90;;;;;;2602704;54;20053;31
2023/01/23 18:54:54;;;;;;;229.85;82.28;;;2.00;99.90;;;;;;2602617;54;20073;31
2023/01/23 18:57:39;;;;;;;236.35;81.47;;;2.00;99.90;;;;;;2603575;54;20534;31
2023/01/23 19:00:24;;;;;;;171.40;60.65;;;2.00;99.90;;;;;;2602751;54;20740;31
2023/01/23 19:03:06;;;;;;;176.90;62.97;;;2.00;99.90;;;;;;2602468;54;20947;31
2023/01/23 19:06:01;;;;;;;137.75;50.05;;;2.00;99.90;;;;;;2602516;54;20694;31
2023/01/23 19:08:39;;;;;;;142.15;53.28;;;2.00;99.90;;;;;;2602578;54;20065;31
2023/01/23 19:14:45;;;;;;;115.82;42.42;;;2.00;99.90;;;;;;2621555;46;20915;31
2023/01/23 19:17:26;;;;;;;113.07;41.08;;;2.10;99.90;;;;;;2603383;54;20049;31
2023/01/23 19:20:04;;;;;;;124.30;43.50;;;2.10;99.90;;;;;;2621230;46;20515;31
2023/01/23 19:22:39;;;;;;;115.32;42.33;;;2.10;99.90;;;;;;2603430;54;19946;31
2023/01/23 19:25:17;;;;;;;115.65;42.65;;;2.00;99.90;;;;;;2603206;54;20077;31
2023/01/23 19:27:54;;;;;;;117.38;41.83;;;2.00;99.90;;;;;;2603553;54;20741;31
2023/01/23 19:30:35;;;;;;;112.47;40.38;;;2.00;99.90;;;;;;2603460;54;20099;31
2023/01/23 19:33:12;;;;;;;113.47;39.83;;;2.00;99.90;;;;;;2603075;54;20085;31
2023/01/23 19:35:53;;;;;;;109.90;43.65;;;2.10;99.90;;;;;;2603366;54;20250;31
2023/01/23 19:38:29;;;;;;;127.77;42.93;;;2.10;99.90;;;;;;2603261;54;20942;31
2023/01/23 19:41:04;;;;;;;115.90;45.60;;;2.10;99.90;;;;;;2603437;54;20258;31
2023/01/23 19:43:39;;;;;;;121.83;41.30;;;2.10;99.90;;;;;;2621664;46;20279;31
2023/01/23 19:46:18;;;;;;;115.60;42.30;;;2.10;99.90;;;;;;2603361;54;20912;31
2023/01/23 19:48:54;;;;;;;111.10;43.20;;;2.10;99.90;;;;;;2603211;54;20752;31
2023/01/23 19:51:31;;;;;;;109.97;40.07;;;2.10;99.90;;;;;;2602970;54;20867;31
2023/01/23 19:54:09;;;;;;;97.15;38.88;;;2.10;99.90;;;;;;2621550;46;20246;31
2023/01/23 19:56:45;;;;;;;107.63;37.83;;;2.10;99.90;;;;;;2603069;54;20732;31
2023/01/23 19:59:21;;;;;;;93.45;36.72;;;2.10;99.90;;;;;;2603273;54;20031;31
2023/01/23 20:02:00;;;;;;;90.00;35.65;;;2.10;99.90;;;;;;2603133;54;20033;31
2023/01/23 20:04:36;;;;;;;111.72;41.80;;;2.10;99.90;;;;;;2621573;46;20744;31
2023/01/23 20:07:12;;;;;;;114.22;42.53;;;2.10;99.90;;;;;;2603141;54;20737;31
2023/01/23 20:09:50;;;;;;;;;;;2.10;99.90;;;;;;2603316;54;20803;31
2023/01/23 20:12:29;;;;;;;116.78;45.22;;;2.10;99.90;;;;;;2621527;46;19993;31
2023/01/23 20:15:05;;;;;;;112.45;44.42;;;2.10;99.90;;;;;;2603250;54;20039;31
2023/01/23 20:17:45;;;;;;;116.30;44.57;;;2.10;99.90;;;;;;2603003;54;20933;31
2023/01/23 20:20:20;;;;;;;107.90;41.55;;;2.10;99.90;;;;;;2772890;31;21430;31
2023/01/23 20:22:57;;;;;;;112.32;43.50;;;2.10;99.90;;;;;;2701648;39;20492;31
2023/01/23 20:25:32;;;;;;;99.53;42.35;;;2.10;99.90;;;;;;2602706;54;20579;31
2023/01/23 20:28:09;;;;;;;87.82;37.38;;;2.10;99.90;;;;;;2603192;54;19946;31
2023/01/23 20:30:47;;;;;;;106.45;46.03;;;2.10;99.90;;;;;;2603271;54;20063;31
2023/01/23 20:33:26;;;;;;;106.53;43.72;;;2.10;99.90;;;;;;2602956;54;20089;31
2023/01/23 20:36:01;;;;;;;115.00;49.38;;;2.20;99.90;;;;;;2603075;54;20046;31
2023/01/23 20:38:39;;;;;;;110.03;43.50;;;2.20;99.90;;;;;;2603214;54;20085;31
2023/01/23 20:41:15;;;;;;;117.20;48.10;;;2.20;99.90;;;;;;2603129;54;20034;31
2023/01/23 20:46:40;;;;;;;113.78;49.22;;;2.20;99.90;;;;;;2602219;54;20107;31
2023/01/23 20:49:24;;;;;;;116.05;48.53;;;2.20;99.90;;;;;;2621255;47;20879;31
2023/01/23 20:53:28;;;;;;;108.72;48.85;;;2.20;99.90;;;;;;2602902;54;20057;31
2023/01/23 20:54:58;;;;;;;94.50;40.05;;;2.20;99.90;;;;;;2602705;54;20930;31
2023/01/23 21:00:28;;;;;;;129.20;52.15;;;2.20;99.90;;;;;;2603115;54;20033;31
2023/01/23 21:03:09;;;;;;;115.30;45.72;;;2.20;99.90;;;;;;2602830;54;20029;31
2023/01/23 21:08:49;;;;;;;111.65;43.70;;;2.20;99.90;;;;;;2621220;47;20072;31
2023/01/23 21:11:28;;;;;;;106.83;43.13;;;2.20;99.90;;;;;;2602900;54;20049;31
2023/01/23 21:14:05;;;;;;;118.53;44.17;;;2.20;99.90;;;;;;2602889;54;21025;31
2023/01/23 21:16:58;;;;;;;142.15;46.38;;;2.20;99.90;;;;;;2602542;54;20925;31
2023/01/23 21:19:38;;;;;;;114.85;46.40;;;2.10;99.90;;;;;;2602774;54;20038;31
2023/01/23 21:25:12;;;;;;;119.28;44.15;;;2.10;99.90;;;;;;2603041;54;20863;31
2023/01/23 21:30:27;;;;;;;121.38;46.33;;;2.10;99.90;;;;;;2603726;54;20026;31
2023/01/23 21:33:03;;;;;;;126.65;47.53;;;2.10;99.90;;;;;;2622150;46;20100;31
2023/01/23 21:35:45;;;;;;;135.60;46.25;;;2.00;99.90;;;;;;2621571;46;20112;31
2023/01/23 21:38:38;;;;;;;127.47;44.63;;;2.00;99.90;;;;;;2603564;54;20910;31
2023/01/23 21:41:31;;;;;;;119.27;42.33;;;2.00;99.90;;;;;;2622124;46;21103;31
2023/01/23 21:44:10;;;;;;;133.07;44.78;;;1.90;99.90;;;;;;2602994;54;20879;31
2023/01/23 21:49:48;;;;;;;114.10;44.97;;;1.90;99.90;;;;;;2603648;54;20831;31
2023/01/23 21:52:28;;;;;;;114.13;43.80;;;1.90;99.90;;;;;;2622032;46;20072;31
2023/01/23 21:55:16;;;;;;;110.90;43.03;;;1.90;99.90;;;;;;2602887;54;20034;31
2023/01/23 21:57:58;;;;;;;94.93;38.17;;;2.00;99.90;;;;;;2603752;54;20550;31
2023/01/23 22:03:42;;;;;;;94.22;39.67;;;2.00;99.90;;;;;;2603704;54;20057;31
2023/01/23 22:06:18;;;;;;;;;;;2.00;99.90;;;;;;2621864;46;20907;31
2023/01/23 22:08:58;;;;;;;104.65;39.38;;;2.00;99.90;;;;;;2622163;46;19935;31
2023/01/23 22:11:33;;;;;;;100.13;41.97;;;2.00;99.90;;;;;;2720533;39;20470;31
2023/01/23 22:17:10;;;;;;;86.93;35.72;;;2.10;99.90;;;;;;2603590;54;20050;31
2023/01/23 22:20:00;;;;;;;95.90;39.47;;;2.10;99.90;;;;;;2603597;54;20031;31
2023/01/23 22:22:40;;;;;;;83.65;35.55;;;2.10;99.90;;;;;;2702113;39;20571;31
2023/01/23 22:25:20;;;;;;;92.43;36.47;;;2.10;99.90;;;;;;2603455;54;20903;31
2023/01/23 22:27:57;;;;;;;95.70;37.35;;;2.10;99.90;;;;;;2603489;54;20891;31
2023/01/23 22:30:38;;;;;;;99.88;38.42;;;2.10;99.90;;;;;;2602787;54;20823;31
2023/01/23 22:33:37;;;;;;;97.78;39.15;;;2.10;99.90;;;;;;2603282;54;20147;31
2023/01/23 22:39:09;;;;;;;98.22;38.20;;;2.10;99.90;;;;;;2603327;54;20027;31
2023/01/23 22:42:03;;;;;;;107.35;38.85;;;2.10;99.90;;;;;;2603465;54;20596;31
2023/01/23 22:50:31;;;;;;;94.22;38.00;;;2.10;99.90;;;;;;2621843;46;20055;31
2023/01/23 22:53:10;;;;;;;96.15;40.05;;;2.10;99.90;;;;;;2603631;54;20030;31
2023/01/23 22:55:45;;;;;;;92.85;37.50;;;2.10;99.90;;;;;;2603380;54;20603;31
2023/01/23 22:58:25;;;;;;;93.68;37.60;;;2.00;99.90;;;;;;2603346;54;20056;31
2023/01/23 23:00:59;;;;;;;89.45;36.15;;;2.00;99.90;;;;;;2701823;39;20481;31
2023/01/23 23:03:41;;;;;;;91.25;38.03;;;2.10;99.90;;;;;;2603572;54;20107;31
2023/01/23 23:06:19;;;;;;;97.32;40.10;;;2.10;99.90;;;;;;2621747;46;20599;31
2023/01/23 23:08:54;;;;;;;84.30;35.28;;;2.10;99.90;;;;;;2603316;54;20880;31
2023/01/23 23:11:30;;;;;;;97.28;38.63;;;2.10;99.90;;;;;;2603531;54;20892;31
2023/01/23 23:14:05;;;;;;;;;;;2.10;99.90;;;;;;2621961;46;20030;31
2023/01/23 23:16:39;;;;;;;95.15;38.90;;;2.10;99.90;;;;;;2622019;46;19934;31
2023/01/23 23:19:16;;;;;;;89.07;36.17;;;2.10;99.90;;;;;;2603293;54;20793;31
2023/01/23 23:21:51;;;;;;;90.25;37.90;;;2.10;99.90;;;;;;2603517;54;20643;31
2023/01/23 23:24:26;;;;;;;93.30;40.38;;;2.10;99.90;;;;;;2603299;54;20080;31
2023/01/23 23:27:01;;;;;;;87.40;38.45;;;2.10;99.90;;;;;;2603471;54;20026;31
2023/01/23 23:29:36;;;;;;;99.10;39.63;;;2.10;99.90;;;;;;2701833;39;20473;31
2023/01/23 23:32:10;;;;;;;101.30;39.97;;;2.10;99.90;;;;;;2621858;46;20027;31
2023/01/23 23:34:49;;;;;;;94.00;38.85;;;2.10;99.90;;;;;;2603281;54;20023;31
2023/01/23 23:37:24;;;;;;;100.57;41.28;;;2.10;99.90;;;;;;2603335;54;20106;31
2023/01/23 23:39:58;;;;;;;109.78;41.88;;;2.00;99.90;;;;;;2603257;54;20029;31
2023/01/23 23:42:32;;;;;;;103.95;41.83;;;2.00;99.90;;;;;;2621777;46;20049;31
2023/01/23 23:45:08;;;;;;;94.88;41.13;;;2.00;99.90;;;;;;2702052;39;20477;31
2023/01/23 23:47:43;;;;;;;100.50;40.50;;;2.00;99.90;;;;;;2603182;54;20222;31
2023/01/23 23:50:21;;;;;;;99.47;40.67;;;2.00;99.90;;;;;;2603066;54;20987;31
2023/01/23 23:52:56;;;;;;;108.35;41.80;;;2.00;99.90;;;;;;2603334;54;20985;31
2023/01/23 23:55:30;;;;;;;93.45;38.92;;;2.00;99.90;;;;;;2603324;54;20891;31
2023/01/23 23:58:04;;;;;;;106.40;41.30;;;2.00;99.90;;;;;;2621805;46;20584;31
